Burke Lakefront Airport
KBKL : now visible

Airfield :











YOU CAN JOIN US ON...

 
LOGIN :

Register | Disclaimer

   EN    FR    IT 

 









Legend :    VFR   Marginal VFR   IFR   Intensive IFR   Very Intensive IFR
Visi :
Ceiling :
>= 8 km
>= 3000ft
5 to 8 km
1000 to 3000 ft
1500m to 5 km
500 to 1000 ft
800 to 1500m
200 to 500 ft
< 800m
< 200 ft
Symbols :   Thunderstorms  Fog  Heavy snow  Heavy precipitations  Wind > 20 kt






- Airport Elevation : 583 ft
- IATA code : BKL


KBKL - Burke Lakefront

CURRENT METAR :
  • 271600Z 22018G30KT 10SM BKN040 24/16 A2957 RMK AO2 PK WND 22028/1554 T02390161

EXPIRED METARs :
  • 271530Z 21016G31KT 10SM BKN028 BKN038 24/17 A2955 RMK AO2 PK WND 23031/1526 T02390167
  • 271453Z 19014G29KT 10SM FEW023 FEW100 24/18 A2954 RMK AO2 PK WND 19029/1444 SLP997 60001 T02390178 51007
  • 271353Z 19014G24KT 10SM FEW021 SCT080 BKN100 22/18 A2953 RMK AO2 RAE48 SLP997 P0000 T02170178
  • 271253Z 19013KT 5SM -RA FEW017 FEW038 OVC060 21/17 A2953 RMK AO2 RAB31 SLP996 P0001 T02060172
  • 271159Z 16009KT 10SM BKN013 BKN029 OVC046 20/17 A2951 RMK AO2 T02000172
  • 271153Z 17009G18KT 10SM FEW013 BKN033 OVC046 20/17 A2952 RMK AO2 RAE21 SLP991 P0000 60007 70044 T02000172 10206 20194 55007

TAF N/A
KZOB FIR / North America



MET'MAP, your aeronautical weather chart ! - Copyright ORBIFLY December 2007 - Disclaimer

ORBIFLY MET'MAP TEAM :

Programming & Development : Alexandra Zaïnal
Original concept : Baudouin d'Aumeries
Technical & hardware support : Manuel Goepfert
Assistance : Marc-Olivier Méhu




SOURCES & CREDITS :

   NOAA       Earth
Advisory